Logo AVAMET
Benvolgut visitant, si us plau, ingressa Recuperar contrasenya
AVAMET paisatges
Union Alcoyana

Alacant IES Miguel Hdez. (Sant Blai)

Dades diàries. Acumulats / Últims 30 dies disponibles

Data Temperatura (°C) Humitat rel. (%) Pressió rel. (hPa) Vent (km/h) Precipitació
Mínima Mitjana Màxima Amplitud
tèrmica
Mínima Mitjana Màxima Mínima Mitjana Màxima Predom. Mitjana Ràfega
màxima
Total
(mm)
Índex-n
Mínima Mitjana Màxima Mínima Mitjana Màxima n
0 a 1
P0 max
mm 5'
Dades mensuals acumulades fins l'últim dia disponible
05/2021 13,7 15,0 16,0 18,3 19,5 22,1 28,5 14,8 20 61 80 1.008 1.016 1.020   4,5 41,8 2,6
Dades anuals acumulades fins l'últim dia disponible
2021 3,1 11,1 18,7 14,4 9,6 18,5 29,6 26,5 13 58 82 1.001 1.017 1.036   4,8 70,8 135,0
Últims 30 dies disponibles
07-05-2021 15,9     22,1     28,5 12,6 20 49 80 1.015 1.016 1.018 SE 3,6 25,7 0,0
06-05-2021 14,5     17,7     20,8 6,3 58 71 79 1.016 1.016 1.018 SSE 4,0 27,4 0,0
05-05-2021 13,7     17,3     20,6 6,9 57 69 76 1.014 1.016 1.017 S 3,8 27,4 0,0
04-05-2021 14,2     16,9     19,5 5,3 48 65 76 1.015 1.018 1.020 SSE 3,7 37,0 0,4
03-05-2021 15,4     17,1     21,0 5,6 44 61 77 1.018 1.019 1.020 E 4,7 37,0 2,2
02-05-2021 15,0     17,9     21,4 6,4 46 62 77 1.014 1.015 1.019 E 4,7 41,8 0,0
01-05-2021 16,0     18,9     23,1 7,1 25 51 73 1.008 1.011 1.014 SO 7,1 41,8 0,0
30-04-2021 14,8     17,7     20,7 5,9 54 70 80 1.007 1.008 1.009 E 3,6 30,6 0,0
29-04-2021 14,8     18,4     22,3 7,5 38 67 80 1.007 1.007 1.008 SE 4,0 30,6 0,0
28-04-2021 14,3     17,6     22,4 8,1 49 73 80 1.005 1.006 1.008 E 3,6 33,8 0,0
27-04-2021 15,5     17,8     22,7 7,2 45 70 81 1.004 1.005 1.006 SE 3,7 33,8 3,8 0,50 1,30
26-04-2021 14,6     16,7     19,9 5,3 60 73 81 1.005 1.006 1.008 SSO 5,9 32,2 10,6 0,51 1,40
25-04-2021 15,8     18,7     22,7 6,9 50 55 67 1.004 1.010 1.015 SE 5,4 33,8 1,0
24-04-2021 14,2     16,2     19,2 5,0 53 62 69 1.015 1.018 1.020 ENE 4,7 33,8 0,0
23-04-2021 12,7     15,4     18,4 5,7 61 71 79 1.018 1.019 1.021 E 3,9 29,0 0,2
22-04-2021 14,3     15,5     18,7 4,4 63 75 79 1.013 1.015 1.018 ENE 3,5 29,0 2,8 0,20 0,60
21-04-2021 14,5     16,0     18,7 4,2 63 74 79 1.011 1.012 1.014 ENE 3,0 29,0 0,6
20-04-2021 14,7     16,1     18,3 3,6 59 72 79 1.011 1.013 1.015 E 4,3 27,4 0,6 0,20
19-04-2021 9,9     15,6     21,2 11,3 43 63 75 1.014 1.017 1.022 SSO 4,3 29,0 0,0
18-04-2021 11,0     13,5     16,3 5,3 50 62 70 1.018 1.020 1.022 SE 4,2 30,6 0,0
17-04-2021 8,4     12,0     15,6 7,2 55 63 73 1.016 1.017 1.019 SSE 4,5 30,6 0,0
16-04-2021 9,4     13,2     17,8 8,4 38 61 80 1.015 1.016 1.019 S 4,3 30,6 4,8 0,20 1,60
15-04-2021 10,6     12,9     14,8 4,2 52 69 81 1.015 1.016 1.018 ENE 4,6 29,0 10,2 0,18 0,40
14-04-2021 12,9     14,7     17,4 4,5 58 64 68 1.017 1.019 1.022 NE 4,1 24,1 0,0
13-04-2021 14,1     15,3     17,5 3,4 53 63 73 1.021 1.023 1.025 E 4,9 35,4 0,0
12-04-2021 13,4     15,2     17,8 4,4 45 67 78 1.018 1.022 1.025 E 3,7 35,4 0,0
11-04-2021 14,0     16,4     20,5 6,5 58 73 80 1.012 1.014 1.017 SSE 4,4 32,2 0,0
10-04-2021 12,2     13,9     16,8 4,6 66 75 80 1.013 1.015 1.018 S 1,8 27,4 7,2 0,17 0,70
09-04-2021 11,2     13,9     18,0 6,8 55 66 75 1.017 1.019 1.022 ENE 3,6 29,0 2,2 0,15 0,40
08-04-2021 11,4     13,2     15,7 4,3 43 59 73 1.022 1.024 1.026 ENE 5,5 35,4 0,2
Últims 13 mesos disponibles
04/2021 8,4 12,9 15,8 15,7 14,8 19,4 27,7 19,3 48 65 75 1.005 1.015 1.024 ENE 4,3 35,4 45,8
03/2021 7,4 10,7 16,4 14,2 13,5 18,2 24,3 16,9 32 60 76 1.012 1.021 1.027 S 4,0 48,3 56,2
02/2021 7,6 11,5 17,3 14,7 15,4 18,7 24,4 16,8 34 58 76 1.002 1.018 1.034 ENE 5,1 67,6 1,8
01/2021 3,1 8,6 18,7 12,3 9,6 17,1 29,6 26,5 33 51 74 1.003 1.016 1.027 SO 5,8 70,8 28,6
12/2020 3,3 9,8 16,8 13,5 12,2 18,2 25,1 21,8 24 49 68 998 1.015 1.028 ONO 6,7 66,0 1,2
11/2020 8,7 13,6 19,3 16,9 18,3 21,4 27,4 18,7 55 65 74 1.005 1.021 1.029 S 3,6 48,3 6,8
10/2020 10,9 15,5 19,6 19,4 19,9 24,4 30,3 19,4 33 51 69 999 1.016 1.025 3,3 64,4 6,8
09/2020 15,7 20,6 23,6 24,1 24,4 28,1 31,4 15,7 28 54 65 1.011 1.017 1.023 SSE 4,5 48,3 2,4
08/2020 18,3 23,8 26,2 27,0 26,6 30,7 34,7 16,4 41 61 71 1.003 1.013 1.018 SE 4,0 41,8 8,8
07/2020 21,7 23,2 25,5 26,4 27,1 29,9 33,7 12,0 44 59 74 1.011 1.015 1.020 ESE 4,2 41,8 0,2
06/2020 15,3 19,9 22,2 23,3 23,3 27,1 32,3 17,0 34 59 71 1.004 1.014 1.021 SE 4,7 46,7 8,4
05/2020 13,8 17,5 20,8 21,3 20,9 25,3 31,6 17,8 40 55 70 1.006 1.016 1.026 ESE 4,2 43,5 29,0
04/2020 10,1 13,5 17,3 16,7 17,4 20,6 27,4 17,3 39 60 73 1.006 1.015 1.025 ESE 4,5 48,3 35,2
Tots els anys disponibles
2020 3,3 15,8 26,2 19,3 11,6 23,6 34,7 31,4 24 57 78 998 1.017 1.033 ESE 4,5 77,2 206,8
2019 3,2 15,4 26,4 18,9 13,4 23,2 36,0 32,8 21 55 77 996 1.016 1.032 N 4,7 77,2 419,4
2018 4,4 15,7 27,9 19,0 10,7 23,0 34,9 30,5 19 55 76 993 1.015 1.034 N 3,9 78,9 265,6
2017 3,6 16,7 28,4 20,8 12,7 24,9 35,4 31,8 45 53 61 1.001 1.016 1.023 5,3 60,0 201,4
Temperatura (°C)
Humitat relativa (%)
Velocitat del vent i ràfega màxima (km/h)
Direcció del vent (°)
Precipitació (mm)
Nota sobre les dades: s'avisa a l'usuari de la provisionalitat i no oficialitat d'aquestes dades
Logo AVAMET blanc
Web allotjada a Sollutia
Llicència de Creative CommonsLa web d'AVAMET i els seus continguts estan subjectes a una llicència de
Reconeixement - No Comercial - Compartir igual
Avís legal - Política de privacitat - Política de cookies
NOVES ESTACIONS: Gaibiel (Ajuntament/Soci), Almenara - Comunitat de Regants (Soci), Gandia - Camí de la mar (Soci), Ayódar (Soci),  Busot - Policia Local (Ajuntament/Soci), Vilafranca - la Pobla del Bellestar (Ajuntament/Soci), la Serratella (Ajuntament/Soci),  Xixona - Cantal del Tormo (Soci),  Castelló de la Plana - Edifici Capitol (Soci),  Algimia de Almonacid (Soci) - - -